Time;durP1;ratioP1;P1;durP2;ratioP2;P2;SDS_P1;SDS_P2;PMS_P1;PMS_P2;Temp;Humidity;BMP_temperature;BMP_pressure;BME280_temperature;BME280_humidity;BME280_pressure;Samples;Min_cycle;Max_cycle;Signal;HPM_P1;HPM_P2
2020/12/22 00:00:41;;;;;;;97.80;61.80;;;6.50;93.60;;;;;;5055949;28;20033;-73
2020/12/22 00:03:07;;;;;;;94.28;58.95;;;6.60;93.90;;;;;;5056136;28;20036;-72
2020/12/22 00:05:33;;;;;;;94.00;58.97;;;6.60;93.90;;;;;;5054255;28;20036;-71
2020/12/22 00:07:59;;;;;;;89.55;56.50;;;6.60;93.70;;;;;;5053392;28;20032;-73
2020/12/22 00:10:25;;;;;;;88.82;56.00;;;6.60;93.40;;;;;;5055337;28;20025;-71
2020/12/22 00:12:51;;;;;;;84.10;54.60;;;6.60;93.20;;;;;;5054230;28;20025;-73
2020/12/22 00:15:17;;;;;;;92.47;57.30;;;6.60;93.30;;;;;;5054382;28;20435;-74
2020/12/22 00:17:44;;;;;;;88.22;51.47;;;6.60;93.40;;;;;;5055926;28;20029;-72
2020/12/22 00:20:11;;;;;;;87.50;52.38;;;6.60;93.50;;;;;;5054032;28;20059;-73
2020/12/22 00:22:36;;;;;;;89.15;53.42;;;6.60;93.20;;;;;;5055274;28;20032;-72
2020/12/22 00:25:04;;;;;;;84.15;51.92;;;6.50;93.10;;;;;;5054488;28;20029;-72
2020/12/22 00:27:33;;;;;;;86.05;52.95;;;6.50;93.30;;;;;;5053894;28;20445;-71
2020/12/22 00:30:00;;;;;;;89.30;55.03;;;6.40;93.50;;;;;;5054902;28;20049;-72
2020/12/22 00:32:25;;;;;;;85.13;52.95;;;6.40;93.80;;;;;;5054106;28;20075;-72
2020/12/22 00:34:51;;;;;;;83.65;50.58;;;6.50;93.60;;;;;;5053690;28;20029;-71
2020/12/22 00:37:17;;;;;;;84.25;50.63;;;6.50;93.30;;;;;;5054261;28;20068;-72
2020/12/22 00:39:42;;;;;;;83.53;47.70;;;6.60;93.30;;;;;;5053588;28;20484;-72
2020/12/22 00:42:08;;;;;;;73.18;44.97;;;6.60;93.20;;;;;;5053633;28;20025;-73
2020/12/22 00:44:34;;;;;;;75.95;44.20;;;6.60;93.00;;;;;;5053967;28;20051;-72
2020/12/22 00:47:00;;;;;;;71.95;43.05;;;6.60;93.00;;;;;;5053590;28;20052;-72
2020/12/22 00:49:25;;;;;;;65.53;40.60;;;6.60;92.60;;;;;;5053762;28;20032;-72
2020/12/22 00:51:51;;;;;;;65.18;41.33;;;6.60;92.60;;;;;;5053673;28;20035;-74
2020/12/22 00:54:17;;;;;;;65.25;39.58;;;6.60;92.90;;;;;;5055097;28;20033;-72
2020/12/22 00:56:47;;;;;;;65.55;39.83;;;6.70;93.00;;;;;;5053634;28;20431;-73
2020/12/22 00:59:13;;;;;;;62.50;38.22;;;6.60;92.90;;;;;;5053630;28;20544;-72
2020/12/22 01:01:38;;;;;;;66.60;40.05;;;6.60;92.70;;;;;;5053250;28;20117;-72
2020/12/22 01:04:04;;;;;;;63.33;38.90;;;6.70;92.70;;;;;;5054804;28;20162;-72
2020/12/22 01:06:39;;;;;;;61.47;37.88;;;6.70;92.60;;;;;;5053481;28;20103;-72
2020/12/22 01:09:06;;;;;;;59.63;36.72;;;6.70;92.40;;;;;;5053380;28;20063;-72
2020/12/22 01:11:39;;;;;;;59.97;38.63;;;6.70;92.40;;;;;;5054841;28;20103;-71
2020/12/22 01:14:08;;;;;;;62.13;39.35;;;6.60;92.20;;;;;;5053855;28;20380;-73
2020/12/22 01:16:34;;;;;;;61.67;38.33;;;6.60;92.60;;;;;;5052913;28;20037;-72
2020/12/22 01:19:00;;;;;;;63.03;39.17;;;6.60;92.50;;;;;;5052859;28;20078;-73
2020/12/22 01:21:26;;;;;;;62.70;39.40;;;6.70;92.60;;;;;;5054152;28;20096;-72
2020/12/22 01:23:51;;;;;;;64.38;39.78;;;6.60;92.70;;;;;;5052820;28;20512;-72
2020/12/22 01:26:22;;;;;;;69.30;39.50;;;6.60;92.70;;;;;;5053037;28;20380;-72
2020/12/22 01:28:48;;;;;;;62.08;39.15;;;6.60;92.50;;;;;;5052704;28;20469;-73
2020/12/22 01:31:30;;;;;;;60.47;38.70;;;6.60;92.20;;;;;;5052578;28;20045;-72
2020/12/22 01:33:58;;;;;;;59.70;37.72;;;6.50;92.40;;;;;;5052923;28;20036;-72
2020/12/22 01:36:25;;;;;;;58.83;36.72;;;6.50;92.40;;;;;;5052585;28;20124;-73
2020/12/22 01:38:51;;;;;;;64.07;39.38;;;6.50;92.40;;;;;;5052803;28;20025;-72
2020/12/22 01:41:17;;;;;;;65.20;39.55;;;6.50;92.40;;;;;;5053413;28;20036;-72
2020/12/22 01:43:59;;;;;;;63.30;39.60;;;6.50;92.30;;;;;;5052561;28;20029;-72
2020/12/22 01:46:31;;;;;;;61.08;38.90;;;6.50;92.20;;;;;;5054388;28;20029;-72
2020/12/22 01:48:58;;;;;;;61.00;37.58;;;6.40;92.30;;;;;;5053077;28;20099;-73
2020/12/22 01:51:25;;;;;;;61.00;38.65;;;6.40;92.10;;;;;;5052556;28;20135;-71
2020/12/22 01:53:51;;;;;;;67.32;41.25;;;6.40;92.50;;;;;;5052538;28;20457;-73
2020/12/22 01:56:17;;;;;;;68.78;42.05;;;6.30;92.50;;;;;;5053131;28;20472;-73
2020/12/22 01:58:43;;;;;;;66.15;40.38;;;6.40;92.50;;;;;;5052326;28;20029;-72
2020/12/22 02:01:08;;;;;;;68.25;41.70;;;6.30;92.50;;;;;;5052553;28;20031;-71
2020/12/22 02:03:34;;;;;;;61.53;38.13;;;6.30;92.40;;;;;;5052164;28;20035;-72
2020/12/22 02:06:00;;;;;;;68.18;40.08;;;6.30;92.40;;;;;;5053575;28;20141;-72
2020/12/22 02:08:26;;;;;;;60.40;37.78;;;6.20;92.30;;;;;;5052710;28;20032;-71
2020/12/22 02:10:51;;;;;;;56.83;35.90;;;6.20;92.30;;;;;;5052113;28;20564;-72
2020/12/22 02:13:17;;;;;;;55.38;35.38;;;6.10;91.90;;;;;;5052468;28;20036;-73
2020/12/22 02:15:43;;;;;;;58.33;34.63;;;6.10;92.10;;;;;;5052869;28;20036;-72
2020/12/22 02:18:09;;;;;;;52.45;33.15;;;6.00;91.90;;;;;;5052155;28;20536;-73
2020/12/22 02:20:36;;;;;;;54.30;32.88;;;6.00;92.10;;;;;;5052912;28;20346;-71
2020/12/22 02:23:01;;;;;;;50.72;31.48;;;5.90;91.90;;;;;;5052230;28;20025;-71
2020/12/22 02:25:27;;;;;;;48.92;30.20;;;5.90;91.90;;;;;;5051973;28;20033;-71
2020/12/22 02:27:53;;;;;;;50.95;30.58;;;5.90;91.80;;;;;;5052264;28;20036;-73
2020/12/22 02:30:19;;;;;;;51.33;29.77;;;5.90;91.80;;;;;;5053119;28;20147;-73
2020/12/22 02:32:45;;;;;;;54.95;32.92;;;5.90;92.00;;;;;;5056499;28;20025;-72
2020/12/22 02:35:11;;;;;;;47.85;30.55;;;5.90;91.90;;;;;;5056444;28;20519;-72
2020/12/22 02:37:36;;;;;;;53.45;31.02;;;5.80;92.00;;;;;;5056243;28;20358;-72
2020/12/22 02:40:03;;;;;;;48.90;29.23;;;5.80;91.90;;;;;;5056376;28;20453;-71
2020/12/22 02:42:29;;;;;;;45.88;28.83;;;5.80;92.00;;;;;;5056160;28;20025;-73
2020/12/22 02:44:55;;;;;;;46.40;28.38;;;5.70;92.00;;;;;;5056388;28;20507;-73
2020/12/22 02:47:21;;;;;;;50.25;29.77;;;5.70;92.20;;;;;;5055729;28;20060;-71
2020/12/22 02:49:46;;;;;;;48.47;29.55;;;5.70;92.10;;;;;;5056027;28;20219;-73
2020/12/22 02:52:12;;;;;;;50.03;29.67;;;5.70;92.10;;;;;;5056264;28;20085;-71
2020/12/22 02:54:38;;;;;;;53.63;30.55;;;5.60;92.10;;;;;;5056507;28;20029;-71
2020/12/22 02:57:04;;;;;;;52.28;31.88;;;5.60;92.20;;;;;;5055840;28;20039;-70
2020/12/22 02:59:30;;;;;;;50.65;31.23;;;5.60;92.30;;;;;;5057451;28;20025;-74
2020/12/22 03:01:56;;;;;;;54.05;31.85;;;5.50;91.90;;;;;;5055522;28;20032;-71
2020/12/22 03:04:22;;;;;;;49.55;31.45;;;5.50;92.20;;;;;;5055754;28;20032;-72
2020/12/22 03:06:47;;;;;;;51.40;32.53;;;5.50;92.40;;;;;;5055420;28;20079;-74
2020/12/22 03:09:14;;;;;;;53.47;31.92;;;5.50;92.20;;;;;;5055696;28;20060;-73
2020/12/22 03:11:40;;;;;;;52.13;30.83;;;5.50;92.20;;;;;;5055616;28;20025;-72
2020/12/22 03:14:05;;;;;;;55.28;32.42;;;5.50;92.30;;;;;;5055287;28;20036;-72
2020/12/22 03:16:31;;;;;;;54.35;32.38;;;5.40;92.30;;;;;;5057148;28;20033;-72
2020/12/22 03:18:57;;;;;;;54.40;33.50;;;5.30;92.40;;;;;;5056811;28;20064;-71
2020/12/22 03:21:24;;;;;;;56.55;34.75;;;5.40;92.40;;;;;;5055123;28;20033;-72
2020/12/22 03:23:50;;;;;;;59.40;35.30;;;5.30;92.40;;;;;;5055423;28;20056;-73
2020/12/22 03:26:15;;;;;;;59.08;34.92;;;5.30;92.50;;;;;;5055335;28;20376;-73
2020/12/22 03:28:41;;;;;;;58.25;34.03;;;5.30;92.40;;;;;;5055019;28;20021;-73
2020/12/22 03:31:07;;;;;;;58.78;34.92;;;5.20;92.60;;;;;;5055034;28;20064;-72
2020/12/22 03:33:33;;;;;;;58.28;35.47;;;5.20;92.80;;;;;;5055235;28;20029;-73
2020/12/22 03:35:58;;;;;;;58.70;34.53;;;5.20;92.70;;;;;;5056065;28;20472;-72
2020/12/22 03:38:24;;;;;;;64.18;36.17;;;5.20;92.60;;;;;;5055143;28;20511;-73
2020/12/22 03:40:50;;;;;;;62.53;35.33;;;5.10;92.50;;;;;;5056248;28;20428;-72
2020/12/22 03:43:16;;;;;;;61.22;37.50;;;5.10;92.50;;;;;;5056068;28;20469;-72
2020/12/22 03:45:42;;;;;;;63.75;39.95;;;5.10;92.60;;;;;;5055034;28;20457;-71
2020/12/22 03:48:08;;;;;;;64.20;37.40;;;5.20;92.60;;;;;;5054951;28;20081;-72
2020/12/22 03:50:34;;;;;;;64.55;39.38;;;5.20;92.70;;;;;;5055868;28;20029;-72
2020/12/22 03:53:03;;;;;;;63.47;39.15;;;5.10;92.50;;;;;;5056140;28;20064;-71
2020/12/22 03:55:29;;;;;;;64.47;38.60;;;5.10;92.60;;;;;;5054668;28;20025;-71
2020/12/22 03:57:55;;;;;;;60.33;35.28;;;5.10;92.50;;;;;;5054168;28;20040;-74
2020/12/22 04:00:21;;;;;;;58.53;35.58;;;5.10;92.60;;;;;;5055018;28;20029;-73
2020/12/22 04:02:47;;;;;;;54.15;32.58;;;5.10;92.50;;;;;;5055379;28;20401;-73
2020/12/22 04:05:13;;;;;;;52.97;33.50;;;5.10;92.60;;;;;;5055631;28;20056;-71
2020/12/22 04:07:38;;;;;;;54.50;33.15;;;5.00;92.50;;;;;;5054289;28;20021;-74
2020/12/22 04:10:06;;;;;;;58.78;35.92;;;5.00;92.60;;;;;;5054642;28;20033;-72
2020/12/22 04:12:33;;;;;;;55.25;35.35;;;5.00;92.40;;;;;;5055071;28;20083;-74
2020/12/22 04:14:59;;;;;;;59.45;35.22;;;5.00;92.80;;;;;;5054291;28;20032;-71
2020/12/22 04:17:25;;;;;;;57.47;34.50;;;5.00;92.70;;;;;;5054117;28;20036;-72
2020/12/22 04:19:51;;;;;;;61.03;34.83;;;4.80;92.10;;;;;;5054422;28;20025;-72
2020/12/22 04:22:18;;;;;;;59.08;35.75;;;4.80;92.50;;;;;;5054266;28;20032;-73
2020/12/22 04:24:43;;;;;;;56.10;34.67;;;4.70;92.30;;;;;;5053679;28;20032;-72
2020/12/22 04:27:09;;;;;;;58.47;36.35;;;4.60;92.20;;;;;;5054113;28;20025;-72
2020/12/22 04:29:35;;;;;;;66.90;38.70;;;4.60;92.50;;;;;;5054127;28;20404;-71
2020/12/22 04:32:01;;;;;;;68.68;38.80;;;4.60;92.70;;;;;;5053625;28;20087;-73
2020/12/22 04:34:26;;;;;;;78.55;42.65;;;4.60;92.70;;;;;;5055537;28;20059;-71
2020/12/22 04:36:53;;;;;;;90.97;46.78;;;4.60;92.80;;;;;;5054041;28;20033;-72
2020/12/22 04:39:19;;;;;;;79.32;46.15;;;4.60;92.60;;;;;;5054976;28;20454;-73
2020/12/22 04:41:47;;;;;;;88.80;49.60;;;4.60;92.70;;;;;;5053927;28;20029;-72
2020/12/22 04:44:17;;;;;;;82.75;47.85;;;4.60;92.80;;;;;;5053948;28;20033;-69
2020/12/22 04:46:53;;;;;;;81.30;47.38;;;4.60;92.80;;;;;;5053502;28;20032;-71
2020/12/22 04:49:24;;;;;;;74.18;40.42;;;4.50;92.70;;;;;;5054354;28;20032;-71
2020/12/22 04:51:52;;;;;;;70.10;39.72;;;4.50;92.80;;;;;;5054702;28;20075;-73
2020/12/22 04:54:21;;;;;;;69.00;38.70;;;4.50;93.00;;;;;;5052947;28;20037;-71
2020/12/22 04:56:47;;;;;;;74.55;39.85;;;4.40;92.70;;;;;;5053732;28;20085;-72
2020/12/22 04:59:15;;;;;;;69.28;40.33;;;4.50;92.90;;;;;;5053335;28;20033;-73
2020/12/22 05:01:42;;;;;;;71.97;39.10;;;4.40;93.00;;;;;;5054831;28;20079;-70
2020/12/22 05:04:14;;;;;;;68.15;38.83;;;4.40;92.90;;;;;;5054493;28;20468;-72
2020/12/22 05:06:40;;;;;;;63.40;35.75;;;4.40;93.10;;;;;;5053123;28;20033;-71
2020/12/22 05:09:06;;;;;;;66.50;36.95;;;4.50;93.20;;;;;;5053690;28;20030;-70
2020/12/22 05:11:36;;;;;;;70.05;39.83;;;4.60;93.10;;;;;;5054618;28;20036;-71
2020/12/22 05:14:05;;;;;;;62.83;38.40;;;4.60;93.20;;;;;;5052863;28;20029;-71
2020/12/22 05:16:35;;;;;;;62.30;35.30;;;4.60;93.30;;;;;;5053261;28;20457;-71
2020/12/22 05:19:02;;;;;;;60.38;36.85;;;4.70;93.10;;;;;;5052997;28;20033;-71
2020/12/22 05:21:36;;;;;;;55.05;34.17;;;4.70;92.90;;;;;;5054154;28;20033;-73
2020/12/22 05:24:05;;;;;;;55.67;34.40;;;4.60;92.80;;;;;;5053800;28;20162;-73
2020/12/22 05:26:33;;;;;;;61.33;35.30;;;4.60;93.00;;;;;;5052950;28;20025;-71
2020/12/22 05:29:13;;;;;;;66.40;37.45;;;4.60;93.20;;;;;;5053022;28;20025;-72
2020/12/22 05:31:51;;;;;;;60.30;34.25;;;4.60;92.90;;;;;;5052695;28;20053;-72
2020/12/22 05:34:19;;;;;;;57.10;36.05;;;4.70;93.00;;;;;;5053000;28;20465;-73
2020/12/22 05:36:46;;;;;;;59.33;34.70;;;4.60;93.00;;;;;;5052960;28;20028;-70
2020/12/22 05:39:14;;;;;;;59.70;36.67;;;4.70;93.20;;;;;;5054100;28;20037;-71
2020/12/22 05:41:39;;;;;;;54.20;32.05;;;4.70;93.10;;;;;;5053987;28;20457;-71
2020/12/22 05:44:07;;;;;;;51.05;32.05;;;4.80;93.10;;;;;;5052648;28;20031;-71
2020/12/22 05:46:37;;;;;;;52.85;33.03;;;4.80;92.90;;;;;;5052684;28;20072;-73
2020/12/22 05:49:08;;;;;;;52.75;32.75;;;4.80;93.00;;;;;;5052294;28;20017;-71
2020/12/22 05:51:34;;;;;;;56.92;33.58;;;4.80;93.00;;;;;;5052683;28;20021;-73
2020/12/22 05:54:06;;;;;;;54.85;33.28;;;4.80;93.10;;;;;;5053608;28;20154;-70
2020/12/22 05:56:33;;;;;;;54.75;33.35;;;4.80;93.00;;;;;;5053665;28;20025;-70
2020/12/22 05:58:59;;;;;;;69.93;41.63;;;4.90;93.00;;;;;;5053858;28;20021;-73
2020/12/22 06:01:35;;;;;;;74.78;47.33;;;4.90;93.20;;;;;;5052528;28;20029;-71
2020/12/22 06:04:04;;;;;;;55.03;31.98;;;4.80;93.10;;;;;;5052232;28;20118;-72
2020/12/22 06:06:32;;;;;;;47.17;30.55;;;4.90;92.90;;;;;;5051854;28;20025;-72
2020/12/22 06:08:58;;;;;;;56.55;33.10;;;4.90;92.90;;;;;;5052139;28;20037;-71
2020/12/22 06:11:24;;;;;;;52.90;33.65;;;5.00;92.90;;;;;;5052424;28;20021;-72
2020/12/22 06:13:53;;;;;;;51.63;31.13;;;5.00;92.90;;;;;;5054238;28;20452;-72
2020/12/22 06:16:21;;;;;;;55.17;32.70;;;5.00;92.70;;;;;;5052965;28;20491;-71
2020/12/22 06:18:51;;;;;;;55.88;31.92;;;5.00;92.80;;;;;;5052283;28;20378;-71
2020/12/22 06:21:19;;;;;;;61.55;33.75;;;5.10;93.00;;;;;;5052377;28;20025;-71
2020/12/22 06:23:50;;;;;;;57.25;34.30;;;5.00;92.90;;;;;;5052468;28;20032;-73
2020/12/22 06:26:19;;;;;;;54.30;33.47;;;5.10;92.80;;;;;;5053180;28;20445;-72
2020/12/22 06:28:45;;;;;;;57.53;34.50;;;5.10;92.80;;;;;;5052271;28;20029;-73
2020/12/22 06:31:15;;;;;;;56.75;33.60;;;5.10;93.00;;;;;;5050750;28;20378;-70
2020/12/22 06:33:41;;;;;;;58.40;33.50;;;5.10;92.80;;;;;;5052238;28;20112;-70
2020/12/22 06:36:10;;;;;;;55.15;32.40;;;5.10;92.80;;;;;;5051975;28;20159;-71
2020/12/22 06:38:57;;;;;;;59.35;34.78;;;5.00;92.80;;;;;;5052947;28;20055;-71
2020/12/22 06:41:46;;;;;;;53.85;32.45;;;5.00;92.70;;;;;;5049674;28;20037;-72
2020/12/22 06:44:18;;;;;;;52.30;32.97;;;5.00;92.80;;;;;;5051997;28;20457;-72
2020/12/22 06:46:46;;;;;;;49.47;30.85;;;5.00;92.60;;;;;;5053390;28;20370;-70
2020/12/22 06:49:12;;;;;;;50.90;32.38;;;5.00;92.60;;;;;;5053951;28;20075;-72
2020/12/22 06:51:40;;;;;;;52.60;33.38;;;4.90;92.60;;;;;;5053367;28;20029;-72
2020/12/22 06:54:12;;;;;;;55.53;33.55;;;4.80;92.60;;;;;;5051971;28;20491;-71
2020/12/22 06:56:43;;;;;;;51.08;32.58;;;4.70;92.90;;;;;;5052042;28;20030;-72
2020/12/22 06:59:11;;;;;;;53.67;33.03;;;4.70;92.90;;;;;;5051155;28;20063;-71
2020/12/22 07:01:39;;;;;;;54.05;34.50;;;4.70;93.00;;;;;;5052964;28;20438;-72
2020/12/22 07:04:17;;;;;;;59.85;38.95;;;4.60;93.10;;;;;;5051740;28;20026;-71
2020/12/22 07:07:02;;;;;;;88.85;56.25;;;4.70;93.30;;;;;;5051352;28;20063;-72
2020/12/22 07:09:33;;;;;;;127.43;76.10;;;4.70;93.20;;;;;;5051995;28;20033;-73
2020/12/22 07:12:10;;;;;;;106.63;65.00;;;4.70;93.10;;;;;;5051634;28;20259;-72
2020/12/22 07:14:45;;;;;;;119.00;70.53;;;4.80;93.50;;;;;;5052735;28;20061;-73
2020/12/22 07:17:14;;;;;;;72.25;44.38;;;4.90;93.00;;;;;;5054202;28;20388;-74
2020/12/22 07:19:46;;;;;;;94.35;40.00;;;5.00;92.70;;;;;;5056590;28;20017;-72
2020/12/22 07:22:17;;;;;;;60.05;36.58;;;5.00;93.00;;;;;;5056143;28;20373;-71
2020/12/22 07:24:44;;;;;;;62.63;35.78;;;5.00;92.60;;;;;;5055738;28;20053;-72
2020/12/22 07:27:10;;;;;;;66.00;37.55;;;4.90;92.90;;;;;;5055067;28;20029;-72
2020/12/22 07:29:40;;;;;;;62.22;35.92;;;4.80;92.80;;;;;;5056681;28;20032;-72
2020/12/22 07:32:07;;;;;;;63.28;39.03;;;4.80;93.00;;;;;;5055431;28;20048;-70
2020/12/22 07:34:33;;;;;;;67.95;40.53;;;4.80;93.20;;;;;;5056147;28;20036;-70
2020/12/22 07:37:13;;;;;;;81.05;50.00;;;4.80;93.20;;;;;;5056711;28;20040;-71
2020/12/22 07:39:39;;;;;;;73.85;45.65;;;4.90;93.00;;;;;;5054941;28;20055;-72
2020/12/22 07:42:19;;;;;;;68.60;42.88;;;4.90;93.30;;;;;;5055100;28;20029;-70
2020/12/22 07:44:46;;;;;;;65.95;40.05;;;5.00;93.30;;;;;;5055067;28;20075;-72
2020/12/22 07:47:13;;;;;;;61.20;39.17;;;5.20;93.30;;;;;;5054673;28;20037;-71
2020/12/22 07:49:40;;;;;;;57.03;36.92;;;5.30;92.70;;;;;;5055045;28;20025;-74
2020/12/22 07:52:06;;;;;;;69.53;41.20;;;5.30;92.50;;;;;;5055534;28;20432;-69
2020/12/22 07:54:32;;;;;;;73.45;43.65;;;5.20;92.50;;;;;;5054497;28;20116;-68
2020/12/22 07:56:59;;;;;;;88.85;46.88;;;5.20;92.60;;;;;;5054768;28;20032;-73
2020/12/22 07:59:26;;;;;;;77.95;46.70;;;5.20;92.50;;;;;;5056096;28;20021;-69
2020/12/22 08:01:53;;;;;;;70.63;43.97;;;5.10;92.60;;;;;;5055423;28;20527;-71
2020/12/22 08:04:24;;;;;;;62.78;39.25;;;5.10;92.70;;;;;;5054748;28;20072;-71
2020/12/22 08:06:58;;;;;;;72.88;43.88;;;5.20;93.00;;;;;;5054643;28;20480;-71
2020/12/22 08:09:26;;;;;;;89.47;59.05;;;5.20;92.70;;;;;;5054323;28;20412;-70
2020/12/22 08:11:54;;;;;;;87.40;55.00;;;5.10;92.60;;;;;;5054460;28;20112;-71
2020/12/22 08:14:22;;;;;;;89.65;57.53;;;5.00;93.00;;;;;;5054211;28;20029;-72
2020/12/22 08:16:50;;;;;;;140.02;82.53;;;5.10;93.00;;;;;;5054026;28;20033;-71
2020/12/22 08:19:17;;;;;;;155.75;94.75;;;5.10;93.10;;;;;;5052503;28;20025;-72
2020/12/22 08:21:45;;;;;;;156.48;90.72;;;5.10;93.00;;;;;;5053756;28;20551;-70
2020/12/22 08:24:12;;;;;;;108.25;68.55;;;5.20;93.30;;;;;;5054097;28;20021;-71
2020/12/22 08:26:44;;;;;;;94.10;62.65;;;5.30;93.60;;;;;;5054243;28;20385;-70
2020/12/22 08:29:12;;;;;;;92.97;58.83;;;5.50;93.10;;;;;;5052599;28;20028;-71
2020/12/22 08:31:39;;;;;;;96.55;61.70;;;5.60;92.90;;;;;;5056160;28;20056;-71
2020/12/22 08:34:05;;;;;;;108.22;68.05;;;5.80;92.50;;;;;;5054361;28;20083;-69
2020/12/22 08:36:31;;;;;;;117.40;70.85;;;5.90;92.10;;;;;;5053728;28;20469;-70
2020/12/22 08:39:23;;;;;;;103.97;62.40;;;5.90;91.90;;;;;;5054101;28;20028;-70
2020/12/22 08:41:57;;;;;;;84.65;49.53;;;6.00;92.00;;;;;;5055755;28;20078;-69
2020/12/22 08:44:25;;;;;;;78.88;47.63;;;6.10;92.40;;;;;;5053733;28;20029;-70
2020/12/22 08:46:52;;;;;;;70.55;43.15;;;6.20;91.70;;;;;;5054272;28;20091;-70
2020/12/22 08:49:20;;;;;;;79.63;47.13;;;6.30;91.80;;;;;;5053806;28;20051;-70
2020/12/22 08:51:47;;;;;;;63.15;38.92;;;6.40;91.40;;;;;;5053427;28;20033;-70
2020/12/22 08:54:14;;;;;;;71.63;41.42;;;6.40;90.80;;;;;;5054960;28;20021;-70
2020/12/22 08:56:40;;;;;;;69.03;42.05;;;6.50;91.50;;;;;;5053366;28;20029;-70
2020/12/22 08:59:08;;;;;;;81.28;49.22;;;6.60;91.40;;;;;;5055098;28;20021;-70
2020/12/22 09:01:49;;;;;;;65.35;40.05;;;6.60;90.90;;;;;;5053876;28;20461;-71
2020/12/22 09:04:15;;;;;;;78.93;46.10;;;6.70;91.00;;;;;;5053711;28;20078;-71
2020/12/22 09:06:45;;;;;;;61.58;38.22;;;6.70;90.60;;;;;;5053448;28;20047;-70
2020/12/22 09:09:30;;;;;;;61.15;38.38;;;6.90;90.70;;;;;;5053420;28;20029;-71
2020/12/22 09:12:06;;;;;;;;;;;7.00;90.80;;;;;;5053725;28;20028;-71
2020/12/22 09:14:45;;;;;;;67.60;40.15;;;7.20;90.60;;;;;;5053264;28;20364;-71
2020/12/22 09:17:12;;;;;;;58.85;36.63;;;7.60;90.80;;;;;;5053331;28;20075;-72
2020/12/22 09:19:42;;;;;;;61.40;34.92;;;8.30;93.20;;;;;;5052910;28;20128;-72
2020/12/22 09:22:08;;;;;;;51.97;30.70;;;9.00;88.20;;;;;;5053180;28;20029;-72
2020/12/22 09:24:34;;;;;;;44.75;28.67;;;9.50;85.00;;;;;;5053939;28;20028;-72
2020/12/22 09:27:12;;;;;;;70.13;40.50;;;9.90;83.80;;;;;;5054110;28;20457;-71
2020/12/22 09:29:40;;;;;;;67.10;38.38;;;10.20;78.70;;;;;;5053115;28;20115;-72
2020/12/22 09:32:07;;;;;;;56.47;33.17;;;10.50;79.50;;;;;;5052489;28;20041;-71
2020/12/22 09:34:35;;;;;;;45.60;29.42;;;10.80;84.60;;;;;;5054451;28;20372;-73
2020/12/22 09:37:06;;;;;;;47.17;30.08;;;11.00;81.30;;;;;;5054228;28;20358;-72
2020/12/22 09:39:33;;;;;;;54.97;33.85;;;12.00;76.50;;;;;;5052783;28;20120;-71
2020/12/22 09:41:59;;;;;;;65.07;40.22;;;12.10;82.70;;;;;;5053706;28;20036;-71
2020/12/22 09:44:25;;;;;;;44.88;29.42;;;12.20;79.40;;;;;;5052841;28;20428;-71
2020/12/22 09:46:53;;;;;;;48.35;29.40;;;12.30;73.70;;;;;;5052515;28;20025;-72
2020/12/22 09:49:19;;;;;;;46.28;29.52;;;12.50;69.40;;;;;;5052411;28;20024;-73
2020/12/22 09:51:46;;;;;;;53.13;34.30;;;12.80;78.10;;;;;;5051455;28;20074;-72
2020/12/22 09:54:11;;;;;;;51.65;33.33;;;13.10;71.60;;;;;;5053138;28;20029;-72
2020/12/22 09:56:38;;;;;;;46.50;33.28;;;13.20;71.70;;;;;;5052846;28;20037;-71
2020/12/22 09:59:04;;;;;;;59.58;35.50;;;13.00;65.90;;;;;;5051238;28;20461;-70
2020/12/22 10:01:30;;;;;;;60.75;38.05;;;13.10;66.60;;;;;;5052265;28;20046;-70
2020/12/22 10:03:57;;;;;;;69.93;46.20;;;12.90;67.10;;;;;;5052481;28;20021;-72
2020/12/22 10:06:24;;;;;;;70.03;46.47;;;12.80;65.60;;;;;;5052233;28;20033;-70
2020/12/22 10:08:51;;;;;;;63.47;36.38;;;12.20;66.70;;;;;;5050599;28;20116;-72
2020/12/22 10:11:18;;;;;;;61.08;35.50;;;12.90;73.40;;;;;;5052060;28;20021;-74
2020/12/22 10:13:44;;;;;;;50.40;33.67;;;13.10;74.90;;;;;;5051818;28;20017;-75
2020/12/22 10:16:16;;;;;;;46.00;30.63;;;13.80;71.40;;;;;;5050400;28;20032;-73
2020/12/22 10:18:43;;;;;;;46.40;30.17;;;14.50;68.80;;;;;;5051110;28;20090;-74
2020/12/22 10:21:11;;;;;;;46.20;30.40;;;14.90;66.20;;;;;;5051545;28;20021;-74
2020/12/22 10:23:38;;;;;;;45.25;29.02;;;15.00;65.50;;;;;;5052625;28;20025;-73
2020/12/22 10:26:05;;;;;;;48.83;31.75;;;15.70;62.70;;;;;;5052905;28;20037;-72
2020/12/22 10:28:33;;;;;;;60.95;38.47;;;15.50;63.10;;;;;;5053007;28;20111;-73
2020/12/22 10:31:00;;;;;;;53.92;36.45;;;15.50;55.50;;;;;;5053710;28;20041;-76
2020/12/22 10:33:26;;;;;;;63.65;40.72;;;14.50;58.20;;;;;;5052256;28;20487;-72
2020/12/22 10:35:52;;;;;;;54.03;37.20;;;13.80;62.20;;;;;;5053047;28;20028;-72
2020/12/22 10:38:18;;;;;;;51.08;35.33;;;13.40;62.80;;;;;;5052230;28;20056;-72
2020/12/22 10:40:44;;;;;;;53.13;36.30;;;13.60;70.70;;;;;;5051343;28;20060;-72
2020/12/22 10:43:11;;;;;;;56.97;37.50;;;14.60;66.00;;;;;;5051486;28;20550;-72
2020/12/22 10:45:37;;;;;;;65.30;43.42;;;15.20;63.30;;;;;;5051722;28;20110;-71
2020/12/22 10:48:04;;;;;;;68.85;43.90;;;14.80;57.30;;;;;;5051943;28;20021;-73
2020/12/22 10:50:30;;;;;;;90.70;55.10;;;15.30;64.20;;;;;;5051339;28;20029;-72
2020/12/22 10:52:56;;;;;;;84.32;53.03;;;16.00;59.80;;;;;;5055904;28;20051;-71
2020/12/22 10:55:23;;;;;;;84.68;52.42;;;16.20;57.00;;;;;;5054691;28;20120;-73
2020/12/22 10:57:50;;;;;;;67.93;46.40;;;15.70;56.10;;;;;;5056883;28;20061;-73
2020/12/22 11:00:16;;;;;;;61.92;44.05;;;15.00;59.00;;;;;;5056699;28;20021;-75
2020/12/22 11:02:44;;;;;;;70.90;45.33;;;16.20;59.40;;;;;;5055528;28;20025;-72
2020/12/22 11:05:10;;;;;;;83.25;54.05;;;16.40;57.00;;;;;;5056460;28;20064;-74
2020/12/22 11:10:07;;;;;;;125.78;63.55;;;15.10;60.40;;;;;;5056992;28;20490;-73
2020/12/22 11:12:33;;;;;;;90.03;58.17;;;15.10;59.40;;;;;;5055470;28;20036;-75
2020/12/22 11:14:59;;;;;;;165.00;110.38;;;15.40;60.40;;;;;;5056904;28;20037;-73
2020/12/22 11:17:26;;;;;;;126.88;88.90;;;15.70;60.70;;;;;;5055264;28;20385;-72
2020/12/22 11:19:52;;;;;;;224.23;163.15;;;15.90;62.60;;;;;;5055477;28;20032;-72
2020/12/22 11:22:18;;;;;;;92.80;67.63;;;15.90;56.60;;;;;;5055499;28;20036;-72
2020/12/22 11:24:44;;;;;;;106.28;70.15;;;15.00;56.80;;;;;;5054854;28;20033;-75
2020/12/22 11:27:10;;;;;;;135.98;77.80;;;15.10;57.40;;;;;;5056344;28;20100;-74
2020/12/22 11:29:36;;;;;;;141.15;81.78;;;15.30;58.90;;;;;;5055227;28;20025;-72
2020/12/22 11:32:02;;;;;;;614.92;424.95;;;14.50;59.60;;;;;;5056330;28;20049;-71
2020/12/22 11:34:27;;;;;;;80.25;56.38;;;14.10;62.20;;;;;;5056062;28;20025;-72
2020/12/22 11:36:54;;;;;;;107.15;66.30;;;14.20;58.40;;;;;;5055216;28;20094;-72
2020/12/22 11:39:21;;;;;;;141.98;79.30;;;13.90;64.20;;;;;;5056425;28;20029;-72
2020/12/22 11:41:47;;;;;;;78.93;54.60;;;14.30;62.50;;;;;;5056134;28;20029;-72
2020/12/22 11:44:13;;;;;;;95.95;64.13;;;13.90;59.20;;;;;;5056611;28;20025;-71
2020/12/22 11:46:46;;;;;;;167.77;87.40;;;13.40;62.20;;;;;;5054718;28;20029;-72
2020/12/22 11:49:12;;;;;;;169.98;101.05;;;13.20;65.20;;;;;;5056424;28;20051;-72
2020/12/22 11:51:39;;;;;;;279.70;154.30;;;12.20;65.60;;;;;;5055669;28;20078;-70
2020/12/22 11:54:05;;;;;;;104.90;70.68;;;11.80;69.90;;;;;;5056148;28;20028;-71
2020/12/22 11:56:31;;;;;;;109.32;75.97;;;11.50;70.10;;;;;;5054733;28;20135;-73
2020/12/22 11:58:58;;;;;;;101.50;66.38;;;11.00;72.90;;;;;;5055770;28;20029;-72
2020/12/22 12:01:29;;;;;;;115.78;80.40;;;10.90;72.90;;;;;;5056284;28;20021;-71
2020/12/22 12:03:56;;;;;;;684.78;320.13;;;10.60;74.20;;;;;;5055841;28;20492;-71
2020/12/22 12:06:27;;;;;;;799.88;387.80;;;11.10;77.40;;;;;;5054369;28;20489;-71
2020/12/22 12:08:52;;;;;;;154.07;99.03;;;11.50;76.60;;;;;;5056222;28;20064;-73
2020/12/22 12:11:18;;;;;;;151.38;90.65;;;11.50;75.00;;;;;;5055867;28;20056;-72
2020/12/22 12:13:44;;;;;;;131.52;79.50;;;11.50;73.90;;;;;;5054173;28;20025;-73
2020/12/22 12:16:10;;;;;;;141.95;87.95;;;10.90;74.90;;;;;;5054455;28;20029;-73
2020/12/22 12:18:36;;;;;;;113.68;72.47;;;10.90;76.10;;;;;;5054611;28;20392;-73
2020/12/22 12:21:04;;;;;;;165.23;92.15;;;10.90;76.40;;;;;;5054289;28;20116;-73
2020/12/22 12:23:29;;;;;;;133.43;83.70;;;10.90;77.60;;;;;;5055316;28;20035;-73
2020/12/22 12:25:55;;;;;;;116.13;78.35;;;10.90;77.90;;;;;;5054213;28;20036;-72
2020/12/22 12:28:22;;;;;;;210.10;111.45;;;10.70;77.50;;;;;;5055238;28;20412;-72
2020/12/22 12:30:48;;;;;;;144.32;88.70;;;10.80;79.40;;;;;;5054004;28;20400;-74
2020/12/22 12:33:14;;;;;;;102.50;70.63;;;10.70;77.70;;;;;;5054171;28;20489;-71
2020/12/22 12:35:40;;;;;;;113.03;79.40;;;10.60;79.60;;;;;;5055049;28;20032;-71
2020/12/22 12:38:05;;;;;;;127.55;82.38;;;10.50;79.60;;;;;;5055320;28;20029;-72